Terminal Aerodrome Forecast
Issued by NWS

Home | Current Version | Previous Version | Graphics & Text | Print | Product List | Glossary On
Versions: 1 2 3 4 5 6 7 8 9 10 11 12 13 14 15 16 17 18 19 20 21 22 23 24
000
FTUS43 KGRB 191100
TAFCWA
TAF
KCWA 191126Z 1912/2012 VRB03KT P6SM BKN018
      TEMPO 1920/1924 SCT020
     FM200200 17003KT 4SM BR BKN012 OVC050=

USA.gov is the U.S. government's official web portal to all federal, state and local government web resources and services.